createdAt,value
2022-08-21T00:00:48.225Z,18.28
2022-08-21T00:01:50.344Z,18.25
2022-08-21T00:03:05.895Z,18.24
2022-08-21T00:04:09.413Z,18.22
2022-08-21T00:05:11.885Z,18.18
2022-08-21T00:06:15.953Z,18.16
2022-08-21T00:07:19.694Z,18.20
2022-08-21T00:08:22.115Z,18.19
2022-08-21T00:09:24.243Z,18.14
2022-08-21T00:10:27.373Z,18.13
2022-08-21T00:11:29.776Z,18.11
2022-08-21T00:12:32.394Z,18.14
2022-08-21T00:13:35.361Z,18.12
2022-08-21T00:14:37.957Z,18.05
2022-08-21T00:15:42.345Z,18.07
2022-08-21T00:16:44.568Z,18.04
2022-08-21T00:17:46.860Z,18.04
2022-08-21T00:18:50.553Z,18.06
2022-08-21T00:19:52.647Z,18.07
2022-08-21T00:20:55.341Z,18.05
2022-08-21T00:21:57.527Z,18.05
2022-08-21T00:22:59.704Z,18.01
2022-08-21T00:24:02.318Z,18.00
2022-08-21T00:25:07.644Z,18.15
2022-08-21T00:26:10.968Z,18.07
2022-08-21T00:27:13.182Z,18.05
2022-08-21T00:28:20.221Z,18.03
2022-08-21T00:29:24.624Z,17.98
2022-08-21T00:30:28.120Z,17.95
2022-08-21T00:31:32.432Z,17.93
2022-08-21T00:32:35.353Z,17.93
2022-08-21T00:33:37.508Z,17.92
2022-08-21T00:34:39.712Z,17.92
2022-08-21T00:35:44.026Z,17.93
2022-08-21T00:36:46.199Z,17.93
2022-08-21T00:37:48.351Z,17.91
2022-08-21T00:38:50.491Z,17.89
2022-08-21T00:39:52.647Z,17.88
2022-08-21T00:41:00.267Z,17.88
2022-08-21T00:42:16.226Z,17.86
2022-08-21T00:43:22.827Z,17.83
2022-08-21T00:44:26.454Z,17.87
2022-08-21T00:45:29.140Z,17.84
2022-08-21T00:46:31.962Z,17.83
2022-08-21T00:47:34.281Z,17.83
2022-08-21T00:48:37.002Z,17.84
2022-08-21T00:49:40.649Z,17.78
2022-08-21T00:50:55.016Z,17.83
2022-08-21T00:52:02.420Z,17.83
2022-08-21T00:53:07.906Z,17.83
2022-08-21T00:54:18.912Z,17.84
2022-08-21T00:55:33.043Z,17.88
2022-08-21T00:56:35.906Z,17.89
2022-08-21T00:57:47.553Z,17.82
2022-08-21T00:58:54.940Z,17.86
2022-08-21T01:00:01.237Z,17.85
2022-08-21T01:01:09.108Z,17.88
2022-08-21T01:02:11.569Z,17.82
2022-08-21T01:03:18.138Z,17.84
2022-08-21T01:04:22.317Z,17.79
2022-08-21T01:05:25.886Z,17.75
2022-08-21T01:06:28.116Z,17.80
2022-08-21T01:07:31.906Z,17.80
2022-08-21T01:08:35.774Z,17.80
2022-08-21T01:09:38.620Z,17.77
2022-08-21T01:10:41.528Z,17.78
2022-08-21T01:11:44.835Z,17.74
2022-08-21T01:12:47.158Z,17.81
2022-08-21T01:13:53.282Z,17.79
2022-08-21T01:14:55.553Z,17.78
2022-08-21T01:16:00.999Z,17.81
2022-08-21T01:17:04.471Z,17.81
2022-08-21T01:18:10.491Z,17.76
2022-08-21T01:19:14.171Z,17.80
2022-08-21T01:20:17.605Z,17.78
2022-08-21T01:21:27.814Z,17.79
2022-08-21T01:22:30.636Z,17.73
2022-08-21T01:23:34.668Z,17.72
2022-08-21T01:24:37.624Z,17.69
2022-08-21T01:25:39.851Z,17.71
2022-08-21T01:26:43.519Z,17.65
2022-08-21T01:27:46.050Z,17.66
2022-08-21T01:29:03.338Z,17.66
2022-08-21T01:30:21.057Z,17.65
2022-08-21T01:31:26.420Z,17.58
2022-08-21T01:32:28.846Z,17.62
2022-08-21T01:33:31.371Z,17.56
2022-08-21T01:34:37.611Z,17.52
2022-08-21T01:35:40.430Z,17.52
2022-08-21T01:36:43.883Z,17.47
2022-08-21T01:37:47.346Z,17.50
2022-08-21T01:38:51.824Z,17.51
2022-08-21T01:39:54.792Z,17.46
2022-08-21T01:40:57.610Z,17.52
2022-08-21T01:42:00.079Z,17.45
2022-08-21T01:43:03.485Z,17.47
2022-08-21T01:44:07.906Z,17.43
2022-08-21T01:45:11.891Z,17.46
2022-08-21T01:46:14.781Z,17.46
2022-08-21T01:47:17.723Z,17.47
2022-08-21T01:48:20.535Z,17.45
2022-08-21T01:49:22.623Z,17.46
2022-08-21T01:50:25.262Z,17.44
2022-08-21T01:51:27.482Z,17.48
2022-08-21T01:52:31.496Z,17.42
2022-08-21T01:53:36.874Z,17.44
2022-08-21T01:54:41.597Z,17.42
2022-08-21T01:55:44.625Z,17.43
2022-08-21T01:56:51.241Z,17.44
2022-08-21T01:57:53.894Z,17.45
2022-08-21T01:58:56.361Z,17.43
2022-08-21T01:59:58.543Z,17.41
2022-08-21T02:01:02.763Z,17.42
2022-08-21T02:02:05.598Z,17.41
2022-08-21T02:03:08.477Z,17.40
2022-08-21T02:04:11.655Z,17.39
2022-08-21T02:05:14.548Z,17.34
2022-08-21T02:06:19.278Z,17.34
2022-08-21T02:07:22.554Z,17.38
2022-08-21T02:08:24.996Z,17.37
2022-08-21T02:09:29.991Z,17.36
2022-08-21T02:10:34.089Z,17.38
2022-08-21T02:11:49.284Z,17.37
2022-08-21T02:12:58.036Z,17.35
2022-08-21T02:14:00.327Z,17.26
2022-08-21T02:15:05.500Z,17.36
2022-08-21T02:16:09.195Z,17.30
2022-08-21T02:17:11.251Z,17.31
2022-08-21T02:18:14.800Z,17.34
2022-08-21T02:19:25.477Z,17.33
2022-08-21T02:20:29.821Z,17.37
2022-08-21T02:21:34.436Z,17.37
2022-08-21T02:22:36.739Z,17.44
2022-08-21T02:23:39.140Z,17.35
2022-08-21T02:24:54.469Z,17.37
2022-08-21T02:25:59.281Z,17.36
2022-08-21T02:27:01.536Z,17.32
2022-08-21T02:28:12.025Z,17.33
2022-08-21T02:29:17.145Z,17.36
2022-08-21T02:30:29.351Z,17.40
2022-08-21T02:31:32.626Z,17.43
2022-08-21T02:32:34.813Z,17.46
2022-08-21T02:33:36.986Z,17.39
2022-08-21T02:34:40.923Z,17.45
2022-08-21T02:35:46.424Z,17.51
2022-08-21T02:36:59.536Z,17.54
2022-08-21T02:38:13.020Z,17.60
2022-08-21T02:39:16.525Z,17.63
2022-08-21T02:40:34.794Z,17.59
2022-08-21T02:41:37.061Z,17.78
2022-08-21T02:42:42.529Z,17.88
2022-08-21T02:43:45.105Z,17.86
2022-08-21T02:44:47.755Z,17.96
2022-08-21T02:45:50.863Z,18.04
2022-08-21T02:46:52.915Z,18.00
2022-08-21T02:48:10.323Z,18.07
2022-08-21T02:49:12.585Z,18.16
2022-08-21T02:50:14.955Z,18.31
2022-08-21T02:51:19.655Z,18.26
2022-08-21T02:52:25.287Z,18.23
2022-08-21T02:53:29.421Z,18.28
2022-08-21T02:54:31.795Z,18.27
2022-08-21T02:55:36.376Z,18.36
2022-08-21T02:56:39.954Z,18.50
2022-08-21T02:57:42.132Z,18.48
2022-08-21T02:58:54.139Z,18.83
2022-08-21T02:59:57.295Z,18.93
2022-08-21T03:00:59.640Z,18.78
2022-08-21T03:02:01.938Z,18.68
2022-08-21T03:03:04.874Z,18.52
2022-08-21T03:04:06.949Z,18.47
2022-08-21T03:05:11.964Z,18.27
2022-08-21T03:06:17.528Z,18.27
2022-08-21T03:07:19.685Z,18.25
2022-08-21T03:08:22.751Z,18.38
2022-08-21T03:09:29.507Z,18.21
2022-08-21T03:10:32.261Z,18.18
2022-08-21T03:11:34.560Z,18.20
2022-08-21T03:12:37.295Z,18.17
2022-08-21T03:13:40.160Z,18.21
2022-08-21T03:14:43.249Z,18.14
2022-08-21T03:15:45.843Z,18.15
2022-08-21T03:16:49.020Z,18.21
2022-08-21T03:17:55.792Z,18.20
2022-08-21T03:18:58.164Z,18.14
2022-08-21T03:20:00.784Z,18.21
2022-08-21T03:21:02.979Z,18.25
2022-08-21T03:22:05.244Z,18.23
2022-08-21T03:23:12.586Z,18.32
2022-08-21T03:24:16.456Z,18.41
2022-08-21T03:25:40.020Z,18.41
2022-08-21T03:26:43.124Z,18.44
2022-08-21T03:27:46.133Z,18.42
2022-08-21T03:28:51.847Z,18.38
2022-08-21T03:29:55.229Z,18.29
2022-08-21T03:30:57.408Z,18.36
2022-08-21T03:32:01.766Z,18.46
2022-08-21T03:33:06.096Z,18.46
2022-08-21T03:34:08.230Z,18.54
2022-08-21T03:35:11.068Z,18.56
2022-08-21T03:36:14.321Z,18.63
2022-08-21T03:37:19.209Z,18.69
2022-08-21T03:38:24.584Z,18.65
2022-08-21T03:39:28.768Z,18.67
2022-08-21T03:40:30.788Z,18.69
2022-08-21T03:41:32.888Z,18.62
2022-08-21T03:42:35.114Z,18.64
2022-08-21T03:43:37.603Z,18.73
2022-08-21T03:44:40.957Z,18.90
2022-08-21T03:45:43.189Z,18.96
2022-08-21T03:46:45.844Z,18.89
2022-08-21T03:48:05.182Z,18.91
2022-08-21T03:49:08.018Z,19.00
2022-08-21T03:50:10.585Z,18.92
2022-08-21T03:51:13.371Z,18.97
2022-08-21T03:52:16.644Z,19.01
2022-08-21T03:53:19.038Z,18.95
2022-08-21T03:54:21.463Z,19.03
2022-08-21T03:55:24.488Z,19.11
2022-08-21T03:56:26.546Z,19.19
2022-08-21T03:57:28.554Z,19.20
2022-08-21T03:58:30.855Z,19.17
2022-08-21T03:59:33.054Z,19.13
2022-08-21T04:00:35.442Z,19.20
2022-08-21T04:01:37.936Z,19.30
2022-08-21T04:02:40.892Z,19.55
2022-08-21T04:03:43.414Z,19.88
2022-08-21T04:04:45.590Z,20.02
2022-08-21T04:05:47.743Z,20.14
2022-08-21T04:06:50.961Z,20.34
2022-08-21T04:07:52.973Z,20.45
2022-08-21T04:08:55.795Z,20.59
2022-08-21T04:09:58.400Z,20.52
2022-08-21T04:11:01.067Z,20.58
2022-08-21T04:12:04.795Z,20.63
2022-08-21T04:13:08.356Z,20.82
2022-08-21T04:14:10.952Z,20.90
2022-08-21T04:15:14.438Z,21.16
2022-08-21T04:16:19.356Z,21.03
2022-08-21T04:17:22.645Z,21.25
2022-08-21T04:18:24.922Z,20.99
2022-08-21T04:19:27.746Z,21.06
2022-08-21T04:20:29.866Z,20.94
2022-08-21T04:21:33.160Z,21.26
2022-08-21T04:22:35.415Z,21.66
2022-08-21T04:23:38.325Z,21.62
2022-08-21T04:24:40.595Z,21.80
2022-08-21T04:25:42.731Z,21.95
2022-08-21T04:26:44.886Z,21.59
2022-08-21T04:27:47.494Z,21.83
2022-08-21T04:28:50.096Z,22.01
2022-08-21T04:29:52.284Z,21.96
2022-08-21T04:30:55.127Z,22.23
2022-08-21T04:31:57.440Z,22.18
2022-08-21T04:33:00.936Z,21.90
2022-08-21T04:34:04.654Z,22.17
2022-08-21T04:35:10.941Z,22.00
2022-08-21T04:36:13.097Z,22.22
2022-08-21T04:37:16.844Z,22.32
2022-08-21T04:38:20.205Z,22.62
2022-08-21T04:39:22.328Z,22.48
2022-08-21T04:40:31.738Z,22.45
2022-08-21T04:41:35.047Z,22.47
2022-08-21T04:42:46.983Z,22.59
2022-08-21T04:43:51.540Z,22.60
2022-08-21T04:44:53.604Z,22.63
2022-08-21T04:45:56.029Z,22.88
2022-08-21T04:47:00.271Z,22.81
2022-08-21T04:48:04.540Z,22.69
2022-08-21T04:49:06.741Z,23.02
2022-08-21T04:50:11.806Z,23.22
2022-08-21T04:51:36.261Z,23.21
2022-08-21T04:52:38.976Z,23.12
2022-08-21T04:54:04.043Z,23.62
2022-08-21T04:55:06.623Z,23.85
2022-08-21T04:56:16.920Z,24.13
2022-08-21T04:57:20.132Z,24.25
2022-08-21T04:58:25.036Z,24.46
2022-08-21T04:59:34.646Z,24.71
2022-08-21T05:00:38.153Z,25.34
2022-08-21T05:01:42.044Z,25.35
2022-08-21T05:02:44.386Z,25.59
2022-08-21T05:03:49.897Z,26.45
2022-08-21T05:04:55.777Z,26.52
2022-08-21T05:05:59.241Z,26.13
2022-08-21T05:07:05.147Z,27.03
2022-08-21T05:08:08.793Z,27.83
2022-08-21T05:09:14.166Z,28.36
2022-08-21T05:10:16.255Z,28.86
2022-08-21T05:11:18.314Z,29.09
2022-08-21T05:12:20.456Z,29.52
2022-08-21T05:13:23.473Z,28.99
2022-08-21T05:14:28.400Z,29.26
2022-08-21T05:15:33.293Z,29.01
2022-08-21T05:16:37.758Z,28.46
2022-08-21T05:17:40.988Z,28.67
2022-08-21T05:18:44.327Z,29.03
2022-08-21T05:19:46.614Z,29.00
2022-08-21T05:21:00.087Z,29.44
2022-08-21T05:22:05.483Z,30.28
2022-08-21T05:23:10.399Z,30.33
2022-08-21T05:24:13.019Z,30.16
2022-08-21T05:25:15.065Z,30.20
2022-08-21T05:26:21.658Z,30.46
2022-08-21T05:27:23.872Z,31.21
2022-08-21T05:28:29.925Z,30.02
2022-08-21T05:29:32.569Z,30.57
2022-08-21T05:30:35.905Z,30.65
2022-08-21T05:31:40.509Z,31.17
2022-08-21T05:32:42.627Z,31.99
2022-08-21T05:33:44.611Z,31.97
2022-08-21T05:34:47.882Z,31.03
2022-08-21T05:35:56.800Z,30.71
2022-08-21T05:36:58.831Z,31.18
2022-08-21T05:38:01.739Z,31.80
2022-08-21T05:39:04.664Z,31.25
2022-08-21T05:40:22.370Z,31.26
2022-08-21T05:41:25.421Z,31.74
2022-08-21T05:42:29.045Z,32.13
2022-08-21T05:43:31.130Z,31.95
2022-08-21T05:44:33.283Z,31.55
2022-08-21T05:45:42.656Z,31.83
2022-08-21T05:46:46.009Z,32.38
2022-08-21T05:47:48.054Z,32.35
2022-08-21T05:48:50.070Z,32.34
2022-08-21T05:49:52.184Z,32.78
2022-08-21T05:50:54.274Z,32.03
2022-08-21T05:51:56.342Z,32.61
2022-08-21T05:53:04.376Z,31.93
2022-08-21T05:54:09.602Z,31.92
2022-08-21T05:55:11.678Z,32.21
2022-08-21T05:56:14.636Z,32.13
2022-08-21T05:57:17.118Z,31.98
2022-08-21T05:58:21.780Z,32.07
2022-08-21T05:59:24.033Z,32.36
2022-08-21T06:00:26.153Z,32.54
2022-08-21T06:01:33.395Z,32.72
2022-08-21T06:02:35.521Z,32.73
2022-08-21T06:03:40.330Z,32.59
2022-08-21T06:04:42.358Z,31.96
2022-08-21T06:05:44.686Z,31.88
2022-08-21T06:06:47.797Z,32.00
2022-08-21T06:07:50.120Z,31.35
2022-08-21T06:08:52.204Z,30.93
2022-08-21T06:09:54.277Z,31.31
2022-08-21T06:10:58.721Z,30.81
2022-08-21T06:12:09.511Z,30.93
2022-08-21T06:13:12.002Z,31.53
2022-08-21T06:14:17.608Z,30.92
2022-08-21T06:15:20.210Z,31.33
2022-08-21T06:16:22.981Z,31.66
2022-08-21T06:17:25.038Z,30.55
2022-08-21T06:18:27.295Z,30.27
2022-08-21T06:19:29.772Z,30.99
2022-08-21T06:20:32.654Z,31.60
2022-08-21T06:21:35.141Z,31.96
2022-08-21T06:22:37.313Z,31.21
2022-08-21T06:23:39.631Z,31.35
2022-08-21T06:24:41.725Z,31.06
2022-08-21T06:25:45.264Z,31.13
2022-08-21T06:26:47.603Z,32.07
2022-08-21T06:27:50.168Z,32.07
2022-08-21T06:28:52.622Z,32.17
2022-08-21T06:29:54.739Z,31.94
2022-08-21T06:30:59.302Z,32.13
2022-08-21T06:32:01.681Z,32.25
2022-08-21T06:33:04.375Z,31.83
2022-08-21T06:34:06.423Z,32.17
2022-08-21T06:35:09.235Z,31.97
2022-08-21T06:36:11.444Z,31.84
2022-08-21T06:37:13.611Z,31.89
2022-08-21T06:38:20.653Z,31.89
2022-08-21T06:39:25.456Z,31.66
2022-08-21T06:40:34.963Z,31.30
2022-08-21T06:41:39.140Z,31.96
2022-08-21T06:42:42.679Z,32.26
2022-08-21T06:43:45.314Z,32.57
2022-08-21T06:44:49.008Z,32.97
2022-08-21T06:45:51.469Z,33.70
2022-08-21T06:46:53.678Z,32.98
2022-08-21T06:47:55.789Z,32.90
2022-08-21T06:48:58.491Z,32.95
2022-08-21T06:50:00.723Z,32.42
2022-08-21T06:51:03.745Z,33.23
2022-08-21T06:52:11.327Z,32.66
2022-08-21T06:53:16.552Z,33.25
2022-08-21T06:54:18.626Z,32.98
2022-08-21T06:55:21.711Z,32.82
2022-08-21T06:56:24.456Z,32.62
2022-08-21T06:57:26.965Z,32.93
2022-08-21T06:58:29.365Z,32.34
2022-08-21T06:59:32.877Z,32.92
2022-08-21T07:00:35.921Z,32.35
2022-08-21T07:01:38.130Z,31.37
2022-08-21T07:02:41.510Z,32.07
2022-08-21T07:03:44.758Z,33.41
2022-08-21T07:04:46.775Z,32.65
2022-08-21T07:05:49.170Z,32.92
2022-08-21T07:06:51.408Z,33.15
2022-08-21T07:07:53.595Z,33.02
2022-08-21T07:08:58.895Z,32.90
2022-08-21T07:10:01.300Z,33.32
2022-08-21T07:11:07.870Z,33.85
2022-08-21T07:12:11.417Z,33.87
2022-08-21T07:13:13.716Z,33.11
2022-08-21T07:14:20.370Z,32.50
2022-08-21T07:15:23.132Z,33.11
2022-08-21T07:16:26.161Z,33.74
2022-08-21T07:17:28.614Z,34.51
2022-08-21T07:18:30.860Z,34.25
2022-08-21T07:19:33.107Z,33.71
2022-08-21T07:20:36.023Z,33.17
2022-08-21T07:21:38.356Z,33.29
2022-08-21T07:22:41.945Z,32.39
2022-08-21T07:23:49.660Z,32.18
2022-08-21T07:24:51.963Z,32.93
2022-08-21T07:25:54.416Z,33.19
2022-08-21T07:26:57.025Z,32.18
2022-08-21T07:27:59.160Z,32.44
2022-08-21T07:29:01.309Z,31.84
2022-08-21T07:30:05.056Z,31.98
2022-08-21T07:31:07.600Z,31.52
2022-08-21T07:32:09.674Z,32.16
2022-08-21T07:33:12.891Z,32.83
2022-08-21T07:34:15.388Z,32.71
2022-08-21T07:35:18.585Z,31.46
2022-08-21T07:36:21.187Z,31.62
2022-08-21T07:37:23.257Z,31.47
2022-08-21T07:38:26.367Z,31.48
2022-08-21T07:39:28.752Z,31.95
2022-08-21T07:40:30.941Z,32.46
2022-08-21T07:41:33.263Z,32.24
2022-08-21T07:42:42.670Z,31.94
2022-08-21T07:43:46.195Z,32.06
2022-08-21T07:44:51.406Z,32.19
2022-08-21T07:45:59.036Z,32.01
2022-08-21T07:47:02.430Z,31.70
2022-08-21T07:48:07.192Z,31.02
2022-08-21T07:49:09.399Z,31.11
2022-08-21T07:50:13.389Z,31.04
2022-08-21T07:51:17.873Z,31.69
2022-08-21T07:52:21.092Z,31.85
2022-08-21T07:53:23.338Z,31.79
2022-08-21T07:54:33.990Z,31.98
2022-08-21T07:55:36.787Z,31.37
2022-08-21T07:56:39.148Z,31.00
2022-08-21T07:57:41.427Z,31.85
2022-08-21T07:58:43.635Z,31.29
2022-08-21T07:59:45.770Z,30.64
2022-08-21T08:00:48.071Z,30.50
2022-08-21T08:01:50.236Z,30.86
2022-08-21T08:02:54.245Z,30.74
2022-08-21T08:03:57.341Z,30.91
2022-08-21T08:05:02.105Z,30.26
2022-08-21T08:06:05.892Z,30.31
2022-08-21T08:07:08.662Z,30.54
2022-08-21T08:08:10.800Z,30.56
2022-08-21T08:09:13.571Z,31.21
2022-08-21T08:10:16.998Z,31.90
2022-08-21T08:11:19.506Z,31.60
2022-08-21T08:12:21.900Z,31.33
2022-08-21T08:13:24.289Z,31.49
2022-08-21T08:14:31.373Z,31.78
2022-08-21T08:15:37.522Z,32.31
2022-08-21T08:16:40.109Z,32.26
2022-08-21T08:17:42.611Z,32.15
2022-08-21T08:18:45.867Z,32.31
2022-08-21T08:19:49.076Z,32.31
2022-08-21T08:20:51.284Z,32.39
2022-08-21T08:22:00.633Z,31.83
2022-08-21T08:23:03.112Z,32.21
2022-08-21T08:24:19.432Z,32.17
2022-08-21T08:25:24.142Z,31.51
2022-08-21T08:26:26.261Z,31.10
2022-08-21T08:27:28.637Z,31.54
2022-08-21T08:28:33.011Z,31.65
2022-08-21T08:29:35.376Z,31.69
2022-08-21T08:30:38.753Z,31.81
2022-08-21T08:31:42.070Z,31.57
2022-08-21T08:32:44.442Z,30.71
2022-08-21T08:33:46.520Z,30.38
2022-08-21T08:34:49.919Z,30.37
2022-08-21T08:35:52.682Z,30.80
2022-08-21T08:36:55.582Z,30.81
2022-08-21T08:37:58.794Z,30.93
2022-08-21T08:39:06.337Z,30.30
2022-08-21T08:40:19.667Z,30.34
2022-08-21T08:41:23.959Z,30.20
2022-08-21T08:42:36.846Z,30.05
2022-08-21T08:43:39.692Z,30.04
2022-08-21T08:44:42.943Z,30.08
2022-08-21T08:45:49.631Z,29.63
2022-08-21T08:46:53.670Z,29.74
2022-08-21T08:48:03.951Z,29.49
2022-08-21T08:49:21.538Z,29.09
2022-08-21T08:50:29.509Z,29.05
2022-08-21T08:51:45.391Z,28.86
2022-08-21T08:53:04.331Z,28.77
2022-08-21T08:54:20.654Z,28.66
2022-08-21T08:55:27.893Z,28.42
2022-08-21T08:56:33.773Z,28.60
2022-08-21T08:57:36.842Z,29.05
2022-08-21T08:58:42.809Z,28.99
2022-08-21T08:59:49.075Z,28.57
2022-08-21T09:00:54.676Z,28.87
2022-08-21T09:01:57.012Z,29.00
2022-08-21T09:03:01.946Z,28.89
2022-08-21T09:04:04.343Z,28.54
2022-08-21T09:05:09.059Z,28.58
2022-08-21T09:06:30.156Z,28.46
2022-08-21T09:08:09.344Z,28.36
2022-08-21T09:09:28.258Z,28.11
2022-08-21T09:10:56.434Z,28.24
2022-08-21T09:12:10.029Z,28.22
2022-08-21T09:13:24.265Z,27.99
2022-08-21T09:14:41.558Z,28.22
2022-08-21T09:15:59.338Z,28.19
2022-08-21T09:17:33.033Z,27.93
2022-08-21T09:18:56.135Z,28.04
2022-08-21T09:20:01.278Z,27.85
2022-08-21T09:21:15.192Z,28.17
2022-08-21T09:24:21.097Z,28.14
2022-08-21T09:24:34.169Z,28.03
2022-08-21T09:25:57.072Z,27.91
2022-08-21T09:27:09.475Z,28.30
2022-08-21T09:28:13.855Z,28.25
2022-08-21T09:29:25.941Z,27.88
2022-08-21T09:30:32.377Z,28.05
2022-08-21T09:31:39.949Z,27.98
2022-08-21T09:32:42.548Z,27.75
2022-08-21T09:33:44.676Z,28.02
2022-08-21T09:35:06.389Z,28.03
2022-08-21T09:36:09.194Z,28.02
2022-08-21T09:37:19.065Z,27.93
2022-08-21T09:38:34.419Z,27.87
2022-08-21T09:39:43.484Z,28.13
2022-08-21T09:40:59.167Z,28.00
2022-08-21T09:42:06.954Z,28.16
2022-08-21T09:43:27.665Z,28.06
2022-08-21T09:44:33.007Z,28.10
2022-08-21T09:45:36.581Z,28.07
2022-08-21T09:46:38.754Z,28.13
2022-08-21T09:47:42.370Z,27.79
2022-08-21T09:48:47.724Z,28.04
2022-08-21T09:49:50.526Z,27.79
2022-08-21T09:50:54.587Z,27.56
2022-08-21T09:52:00.778Z,27.73
2022-08-21T09:53:04.298Z,27.99
2022-08-21T09:54:06.271Z,27.97
2022-08-21T09:55:38.204Z,28.35
2022-08-21T09:57:32.031Z,28.28
2022-08-21T09:58:36.754Z,28.30
2022-08-21T09:59:39.356Z,28.09
2022-08-21T10:00:41.571Z,28.19
2022-08-21T10:01:46.857Z,28.34
2022-08-21T10:02:49.000Z,27.97
2022-08-21T10:04:09.107Z,28.11
2022-08-21T10:05:19.976Z,28.11
2022-08-21T10:06:26.166Z,27.99
2022-08-21T10:07:32.449Z,28.05
2022-08-21T10:08:36.677Z,27.98
2022-08-21T10:09:39.014Z,27.87
2022-08-21T10:10:41.220Z,27.80
2022-08-21T10:12:11.137Z,27.74
2022-08-21T10:13:16.833Z,27.69
2022-08-21T10:14:27.893Z,27.72
2022-08-21T10:16:09.050Z,27.99
2022-08-21T10:17:51.903Z,27.91
2022-08-21T10:19:38.442Z,27.71
2022-08-21T10:21:01.938Z,27.63
2022-08-21T10:22:21.345Z,27.74
2022-08-21T10:23:38.277Z,27.66
2022-08-21T10:25:18.759Z,27.61
2022-08-21T10:26:23.686Z,27.58
2022-08-21T10:27:28.532Z,27.62
2022-08-21T10:28:50.968Z,27.56
2022-08-21T10:30:03.004Z,27.67
2022-08-21T10:31:22.632Z,27.68
2022-08-21T10:32:43.079Z,27.59
2022-08-21T10:33:54.441Z,27.74
2022-08-21T10:35:12.552Z,27.77
2022-08-21T10:36:29.703Z,27.64
2022-08-21T10:37:57.399Z,27.62
2022-08-21T10:39:36.987Z,27.57
2022-08-21T10:41:05.881Z,27.43
2022-08-21T10:42:36.183Z,27.43
2022-08-21T10:44:00.718Z,27.40
2022-08-21T10:45:15.067Z,27.48
2022-08-21T10:46:34.967Z,27.58
2022-08-21T10:47:43.132Z,27.64
2022-08-21T10:49:20.421Z,27.72
2022-08-21T10:50:28.715Z,27.70
2022-08-21T10:51:46.231Z,27.56
2022-08-21T10:53:06.546Z,27.42
2022-08-21T10:54:35.812Z,27.48
2022-08-21T10:55:52.601Z,27.53
2022-08-21T10:57:03.410Z,27.49
2022-08-21T10:58:15.492Z,27.57
2022-08-21T10:59:27.050Z,27.65
2022-08-21T11:00:56.528Z,27.70
2022-08-21T11:02:03.227Z,27.74
2022-08-21T11:03:09.290Z,27.53
2022-08-21T11:04:30.044Z,27.45
2022-08-21T11:05:53.188Z,27.48
2022-08-21T11:07:04.613Z,27.32
2022-08-21T11:08:20.585Z,27.38
2022-08-21T11:09:26.859Z,27.32
2022-08-21T11:10:51.313Z,27.26
2022-08-21T11:12:11.499Z,27.04
2022-08-21T11:13:37.297Z,26.93
2022-08-21T11:14:53.038Z,26.86
2022-08-21T11:16:06.309Z,26.89
2022-08-21T11:17:21.777Z,26.93
2022-08-21T11:18:42.625Z,26.83
2022-08-21T11:19:58.131Z,26.78
2022-08-21T11:21:41.618Z,26.74
2022-08-21T11:23:04.551Z,26.88
2022-08-21T11:24:18.542Z,26.95
2022-08-21T11:25:46.348Z,26.97
2022-08-21T11:27:29.845Z,26.93
2022-08-21T11:28:44.057Z,26.95
2022-08-21T11:29:51.638Z,26.84
2022-08-21T11:31:08.568Z,26.79
2022-08-21T11:32:46.343Z,26.99
2022-08-21T11:34:00.484Z,27.13
2022-08-21T11:35:41.644Z,27.12
2022-08-21T11:36:49.662Z,26.92
2022-08-21T11:38:25.508Z,26.98
2022-08-21T11:39:46.989Z,27.02
2022-08-21T11:41:08.052Z,26.90
2022-08-21T11:42:16.172Z,26.90
2022-08-21T11:43:23.958Z,26.81
2022-08-21T11:44:39.357Z,26.73
2022-08-21T11:45:54.543Z,26.65
2022-08-21T11:47:13.366Z,26.67
2022-08-21T11:48:50.273Z,26.73
2022-08-21T11:49:58.203Z,26.72
2022-08-21T11:51:05.466Z,26.81
2022-08-21T11:52:18.812Z,26.70
2022-08-21T11:53:41.163Z,26.71
2022-08-21T11:54:50.888Z,26.69
2022-08-21T11:56:03.256Z,26.73
2022-08-21T11:57:26.328Z,26.70
2022-08-21T11:58:34.376Z,26.58
2022-08-21T12:00:06.301Z,26.60
2022-08-21T12:01:23.001Z,26.61
2022-08-21T12:02:42.400Z,26.49
2022-08-21T12:03:58.463Z,26.48
2022-08-21T12:05:09.207Z,26.46
2022-08-21T12:06:24.541Z,26.53
2022-08-21T12:07:36.703Z,26.48
2022-08-21T12:08:45.103Z,26.48
2022-08-21T12:09:56.304Z,26.47
2022-08-21T12:11:30.518Z,26.48
2022-08-21T12:12:36.228Z,26.39
2022-08-21T12:13:53.364Z,26.46
2022-08-21T12:15:16.232Z,26.48
2022-08-21T12:16:39.582Z,26.38
2022-08-21T12:17:53.170Z,26.43
2022-08-21T12:19:12.147Z,26.43
2022-08-21T12:20:22.972Z,26.48
2022-08-21T12:21:28.368Z,26.50
2022-08-21T12:22:41.896Z,26.57
2022-08-21T12:23:46.788Z,26.53
2022-08-21T12:25:04.404Z,26.45
2022-08-21T12:26:12.055Z,26.57
2022-08-21T12:27:26.593Z,26.58
2022-08-21T12:28:31.672Z,26.67
2022-08-21T12:29:38.461Z,26.75
2022-08-21T12:30:47.030Z,26.80
2022-08-21T12:32:00.485Z,26.76
2022-08-21T12:33:20.139Z,26.94
2022-08-21T12:34:29.689Z,26.91
2022-08-21T12:35:39.753Z,26.93
2022-08-21T12:36:56.198Z,27.01
2022-08-21T12:38:03.432Z,26.88
2022-08-21T12:39:12.706Z,26.98
2022-08-21T12:40:42.928Z,27.08
2022-08-21T12:41:54.040Z,27.00
2022-08-21T12:43:00.793Z,27.14
2022-08-21T12:44:11.704Z,27.16
2022-08-21T12:45:33.897Z,27.28
2022-08-21T12:46:52.368Z,27.03
2022-08-21T12:47:59.652Z,27.07
2022-08-21T12:49:12.066Z,27.14
2022-08-21T12:50:21.944Z,27.13
2022-08-21T12:51:33.971Z,27.24
2022-08-21T12:52:49.773Z,27.17
2022-08-21T12:53:55.754Z,26.98
2022-08-21T12:54:57.859Z,26.94
2022-08-21T12:56:11.756Z,27.01
2022-08-21T12:57:23.325Z,27.02
2022-08-21T12:58:26.047Z,26.95
2022-08-21T12:59:28.617Z,26.87
2022-08-21T13:00:31.615Z,26.97
2022-08-21T13:01:45.060Z,26.91
2022-08-21T13:02:50.659Z,27.00
2022-08-21T13:04:04.189Z,27.05
2022-08-21T13:05:12.979Z,27.08
2022-08-21T13:06:19.856Z,27.17
2022-08-21T13:07:29.273Z,27.12
2022-08-21T13:08:37.585Z,27.18
2022-08-21T13:09:50.093Z,27.09
2022-08-21T13:11:00.712Z,27.19
2022-08-21T13:12:18.980Z,27.06
2022-08-21T13:13:28.447Z,27.16
2022-08-21T13:14:45.377Z,27.10
2022-08-21T13:15:48.897Z,27.10
2022-08-21T13:16:58.524Z,27.08
2022-08-21T13:18:03.410Z,27.18
2022-08-21T13:19:08.481Z,27.24
2022-08-21T13:20:24.654Z,27.12
2022-08-21T13:21:32.971Z,27.19
2022-08-21T13:22:42.508Z,27.08
2022-08-21T13:23:49.306Z,27.05
2022-08-21T13:24:51.524Z,26.99
2022-08-21T13:25:54.487Z,26.96
2022-08-21T13:26:57.373Z,26.99
2022-08-21T13:28:05.457Z,26.97
2022-08-21T13:29:12.309Z,26.89
2022-08-21T13:30:21.653Z,26.91
2022-08-21T13:31:29.128Z,27.00
2022-08-21T13:32:34.330Z,26.99
2022-08-21T13:33:37.544Z,26.99
2022-08-21T13:34:40.324Z,27.00
2022-08-21T13:36:04.926Z,26.97
2022-08-21T13:37:09.998Z,26.78
2022-08-21T13:38:12.478Z,26.76
2022-08-21T13:39:19.476Z,26.77
2022-08-21T13:40:45.266Z,26.80
2022-08-21T13:41:50.486Z,26.84
2022-08-21T13:42:53.486Z,26.84
2022-08-21T13:44:03.687Z,26.87
2022-08-21T13:45:14.916Z,26.81
2022-08-21T13:46:19.267Z,26.80
2022-08-21T13:47:21.774Z,26.91
2022-08-21T13:48:27.627Z,26.72
2022-08-21T13:49:33.650Z,26.75
2022-08-21T13:50:39.553Z,26.75
2022-08-21T13:51:46.162Z,26.63
2022-08-21T13:53:20.288Z,26.67
2022-08-21T13:54:40.893Z,26.69
2022-08-21T13:55:44.560Z,26.65
2022-08-21T13:56:47.922Z,26.65
2022-08-21T13:58:00.401Z,26.73
2022-08-21T13:59:05.171Z,26.71
2022-08-21T14:00:17.829Z,26.69
2022-08-21T14:01:25.143Z,26.66
2022-08-21T14:02:27.363Z,26.60
2022-08-21T14:03:43.838Z,26.60
2022-08-21T14:04:53.083Z,26.54
2022-08-21T14:05:55.785Z,26.55
2022-08-21T14:06:58.254Z,26.51
2022-08-21T14:08:09.381Z,26.59
2022-08-21T14:09:16.928Z,26.56
2022-08-21T14:10:21.893Z,26.57
2022-08-21T14:11:24.493Z,26.61
2022-08-21T14:12:30.804Z,26.60
2022-08-21T14:13:43.487Z,26.60
2022-08-21T14:14:46.385Z,26.60
2022-08-21T14:15:58.127Z,26.55
2022-08-21T14:17:24.333Z,26.69
2022-08-21T14:18:28.230Z,26.69
2022-08-21T14:19:50.490Z,26.65
2022-08-21T14:20:53.602Z,26.64
2022-08-21T14:21:56.102Z,26.63
2022-08-21T14:22:58.870Z,26.66
2022-08-21T14:24:24.781Z,26.60
2022-08-21T14:25:26.967Z,26.57
2022-08-21T14:26:29.168Z,26.53
2022-08-21T14:27:32.788Z,26.58
2022-08-21T14:28:42.999Z,26.57
2022-08-21T14:29:45.250Z,26.55